Pensacola, FL (32503)

2:55 AM CST on December 29, 2014 (GMT -0600)
Cordova Park | Change Station
CLOSE
Current Station
Personal Weather Station
Location: Pensacola, FL
Elevation: 98 ft
Nearby Weather Stations

Elev 98 ft 30.46 °N, 87.19 °W | Updated 21 seconds ago

Rain
Rain
56.1 °F
Feels Like 56.1 °F
N
6.0
Wind Variable Wind from NNE
Gusts 12.0 mph

Today
High -- | Low -- °F
--% Chance of Precip.
Yesterday
High -- | Low -- °F
Precip. -- in
6:44 AM 4:57 PM
First Quarter, 57% visible
Pressure 30.04 in
Visibility 10.0 miles
Clouds Few 1400 ft
Mostly Cloudy 5000 ft
Overcast 8000 ft
Dew Point 53 °F
Humidity 89%
Rainfall -999.00 in
Snow Depth Not available.
UV 0.0 out of 12
Pollen 1.30 out of 12
Air Quality Not available.
Flu Activity Not available.
METAR KPNS 290753Z AUTO 35011KT 10SM FEW014 BKN050 OVC080 14/13 A3004 RMK AO2 PK WND 35027/0717 SLP173 T01440128

More Conditions Fewer Conditions

Pressure 30.04 in
Visibility 10.0 miles
Clouds Few 1400 ft
Mostly Cloudy 5000 ft
Overcast 8000 ft
Dew Point 53 °F
Humidity 89%
Rainfall -999.00 in
Snow Depth Not available.
UV 0.0 out of 12
Pollen 1.30 out of 12
Air Quality Not available.
Flu Activity Not available.
METAR KPNS 290753Z AUTO 35011KT 10SM FEW014 BKN050 OVC080 14/13 A3004 RMK AO2 PK WND 35027/0717 SLP173 T01440128

More Conditions Fewer Conditions

10-Day Weather Forecast

Almanac

Astronomy

Dec. 29, 2014 Rise Set
Actual Time
Civil Twilight
Nautical Twilight
Astronomical Twilight
Moon
Length of Visible Light
Length of Day
Tomorrow will be .
, % of the Moon is Illuminated

Today's Extremes

State Highs State Lows

Community

WunderPhotos

Upload Photos

1,781,558 photos uploaded!

WunderBlogs® & News

Nearby

Air Quality

  Air Quality AQ Index Pollutant
Not available.

Snow Depth

Station Depth Elevation

Earthquake Activity

City Distance Mag. Time & Date
Minimum magnitude displayed is 2.5.

Coastal Water Temperatures

Place Temperature

Nearby Weather Stations